Time;durP1;ratioP1;P1;durP2;ratioP2;P2;SDS_P1;SDS_P2;PMS_P1;PMS_P2;Temp;Humidity;BMP_temperature;BMP_pressure;BME280_temperature;BME280_humidity;BME280_pressure;Samples;Min_cycle;Max_cycle;Signal;HPM_P1;HPM_P2
2022/10/04 00:01:10;;;;;;;20.00;8.13;;;13.60;99.90;;;;;;5054212;28;20198;-82
2022/10/04 00:03:42;;;;;;;13.33;6.73;;;13.60;99.90;;;;;;5046087;28;20246;-81
2022/10/04 00:06:17;;;;;;;12.40;6.83;;;13.60;99.90;;;;;;5034519;28;20198;-82
2022/10/04 00:08:48;;;;;;;15.33;7.40;;;13.60;99.90;;;;;;5034955;28;20201;-84
2022/10/04 00:11:22;;;;;;;19.33;8.10;;;13.60;99.90;;;;;;5034596;28;20255;-82
2022/10/04 00:13:52;;;;;;;14.40;6.37;;;13.60;99.90;;;;;;5034346;28;20229;-82
2022/10/04 00:16:23;;;;;;;17.20;7.60;;;13.60;99.90;;;;;;5034262;28;20195;-81
2022/10/04 00:19:02;;;;;;;16.13;6.47;;;13.60;99.90;;;;;;5052782;28;20209;-83
2022/10/04 00:22:02;;;;;;;11.33;5.73;;;13.60;99.90;;;;;;5054486;28;20285;-82
2022/10/04 00:24:31;;;;;;;14.33;6.50;;;13.60;99.90;;;;;;5034400;28;20210;-83
2022/10/04 00:27:19;;;;;;;18.93;6.83;;;13.60;99.90;;;;;;5034574;28;20199;-84
2022/10/04 00:30:09;;;;;;;11.63;5.93;;;13.60;99.90;;;;;;5035269;28;20576;-84
2022/10/04 00:32:47;;;;;;;11.48;5.85;;;13.60;99.90;;;;;;5034374;28;20210;-84
2022/10/04 00:35:50;;;;;;;13.67;5.60;;;13.50;99.90;;;;;;5033732;28;20490;-83
2022/10/04 00:38:26;;;;;;;10.50;5.73;;;13.60;99.90;;;;;;5034655;28;20210;-83
2022/10/04 00:40:59;;;;;;;11.40;5.70;;;13.50;99.90;;;;;;5050923;28;20206;-84
2022/10/04 00:43:33;;;;;;;10.70;5.03;;;13.50;99.90;;;;;;5048342;28;20233;-83
2022/10/04 00:46:05;;;;;;;10.37;5.20;;;13.50;99.90;;;;;;5033684;28;20464;-84
2022/10/04 00:48:44;;;;;;;9.67;4.93;;;13.50;99.90;;;;;;5033847;28;20324;-83
2022/10/04 00:51:27;;;;;;;8.77;4.40;;;13.50;99.90;;;;;;5033996;28;20274;-84
2022/10/04 00:54:06;;;;;;;10.90;5.03;;;13.50;99.90;;;;;;5034485;28;20237;-82
2022/10/04 00:56:39;;;;;;;10.50;4.70;;;13.50;99.90;;;;;;5033513;28;20193;-82
2022/10/04 00:59:27;;;;;;;14.57;5.30;;;13.50;99.90;;;;;;5034697;28;20496;-83
2022/10/04 01:01:59;;;;;;;10.00;5.13;;;13.50;99.90;;;;;;5034207;28;20210;-83
2022/10/04 01:04:38;;;;;;;8.83;4.70;;;13.50;99.90;;;;;;5034143;28;20234;-84
2022/10/04 01:07:06;;;;;;;13.90;5.40;;;13.50;99.90;;;;;;5034265;28;20213;-85
2022/10/04 01:09:38;;;;;;;11.10;5.03;;;13.50;99.90;;;;;;5033886;28;20198;-84
2022/10/04 01:12:14;;;;;;;10.33;5.03;;;13.50;99.90;;;;;;5034516;28;20346;-84
2022/10/04 01:14:50;;;;;;;8.67;4.63;;;13.50;99.90;;;;;;5033841;28;20194;-82
2022/10/04 01:17:18;;;;;;;10.23;4.70;;;13.40;99.90;;;;;;5034460;28;20198;-84
2022/10/04 01:19:52;;;;;;;8.07;4.50;;;13.40;99.90;;;;;;5033967;28;20198;-84
2022/10/04 01:22:35;;;;;;;9.57;4.70;;;13.40;99.90;;;;;;5034166;28;20186;-83
2022/10/04 01:25:02;;;;;;;6.40;4.30;;;13.40;99.90;;;;;;5034278;28;20247;-84
2022/10/04 01:27:35;;;;;;;9.43;4.73;;;13.40;99.90;;;;;;5041803;28;20201;-84
2022/10/04 01:30:06;;;;;;;7.10;4.50;;;13.40;99.90;;;;;;5053180;28;20193;-85
2022/10/04 01:32:33;;;;;;;11.83;5.27;;;13.40;99.90;;;;;;5040847;28;20202;-82
2022/10/04 01:35:00;;;;;;;9.00;4.33;;;13.40;99.90;;;;;;5034106;28;20207;-84
2022/10/04 01:37:27;;;;;;;10.20;4.97;;;13.50;99.90;;;;;;5032462;28;20209;-84
2022/10/04 01:39:56;;;;;;;11.63;4.70;;;13.50;99.90;;;;;;5034149;28;20281;-84
2022/10/04 01:42:29;;;;;;;11.53;4.80;;;13.50;99.90;;;;;;5049495;28;20233;-84
2022/10/04 01:45:03;;;;;;;13.53;5.53;;;13.40;99.90;;;;;;5053484;28;20652;-85
2022/10/04 01:47:35;;;;;;;13.07;5.23;;;13.50;99.90;;;;;;5053513;28;20202;-84
2022/10/04 01:50:06;;;;;;;9.60;5.00;;;13.40;99.90;;;;;;5039885;28;20210;-83
2022/10/04 01:52:37;;;;;;;11.17;5.13;;;13.40;99.90;;;;;;5032627;28;20209;-85
2022/10/04 01:55:11;;;;;;;9.73;4.50;;;13.40;99.90;;;;;;5037554;28;20200;-85
2022/10/04 01:57:45;;;;;;;9.20;4.53;;;13.30;99.90;;;;;;5050904;28;20218;-83
2022/10/04 02:00:13;;;;;;;11.10;5.60;;;13.30;99.90;;;;;;5033187;28;20194;-84
2022/10/04 02:02:45;;;;;;;11.37;5.27;;;13.30;99.90;;;;;;5033727;28;20250;-84
2022/10/04 02:05:17;;;;;;;9.47;5.47;;;13.20;99.90;;;;;;5033274;28;20206;-84
2022/10/04 02:07:46;;;;;;;10.03;5.30;;;13.20;99.90;;;;;;5034873;28;20210;-83
2022/10/04 02:10:19;;;;;;;10.17;5.20;;;13.20;99.90;;;;;;5038273;28;20204;-83
2022/10/04 02:12:48;;;;;;;12.87;5.93;;;13.10;99.90;;;;;;5036883;28;20198;-83
2022/10/04 02:15:18;;;;;;;12.47;6.13;;;13.10;99.90;;;;;;5037637;28;20533;-84
2022/10/04 02:17:47;;;;;;;10.07;5.93;;;13.10;99.90;;;;;;5043487;28;20206;-83
2022/10/04 02:20:17;;;;;;;9.17;6.13;;;13.00;99.90;;;;;;5057216;28;20201;-84
2022/10/04 02:22:46;;;;;;;10.17;6.17;;;13.00;99.90;;;;;;5057316;28;20204;-84
2022/10/04 02:25:16;;;;;;;8.57;5.77;;;12.90;99.90;;;;;;5057075;28;20218;-83
2022/10/04 02:27:43;;;;;;;22.80;7.07;;;12.90;99.90;;;;;;5056206;28;20205;-83
2022/10/04 02:30:12;;;;;;;11.57;7.00;;;12.90;99.90;;;;;;5057017;28;20202;-84
2022/10/04 02:32:56;;;;;;;12.90;6.30;;;12.90;99.90;;;;;;5056803;28;20594;-83
2022/10/04 02:35:26;;;;;;;10.93;5.63;;;12.80;99.90;;;;;;5040733;28;20215;-83
2022/10/04 02:38:02;;;;;;;9.37;5.97;;;12.80;99.90;;;;;;5041248;28;20209;-83
2022/10/04 02:40:33;;;;;;;13.67;6.23;;;12.70;99.90;;;;;;5056553;28;20587;-81
2022/10/04 02:43:04;;;;;;;13.07;7.63;;;12.70;99.90;;;;;;5047133;28;20214;-83
2022/10/04 02:45:42;;;;;;;16.63;7.37;;;12.70;99.90;;;;;;5036845;28;20630;-83
2022/10/04 02:48:26;;;;;;;11.93;6.87;;;12.60;99.90;;;;;;5036392;28;20199;-83
2022/10/04 02:50:55;;;;;;;10.80;6.30;;;12.60;99.90;;;;;;5037059;28;20195;-82
2022/10/04 02:53:27;;;;;;;12.07;7.70;;;12.60;99.90;;;;;;5036515;28;20203;-82
2022/10/04 02:55:56;;;;;;;18.50;8.23;;;12.60;99.90;;;;;;5054480;28;20194;-84
2022/10/04 02:58:25;;;;;;;15.93;8.17;;;12.50;99.90;;;;;;5056354;28;20214;-84
2022/10/04 03:00:57;;;;;;;15.10;7.03;;;12.50;99.90;;;;;;5055974;28;20625;-82
2022/10/04 03:03:26;;;;;;;12.47;7.47;;;12.50;99.90;;;;;;5035435;28;20693;-83
2022/10/04 03:06:06;;;;;;;13.47;8.10;;;12.50;99.90;;;;;;5036274;28;20613;-84
2022/10/04 03:08:37;;;;;;;10.80;6.13;;;12.40;99.90;;;;;;5036481;28;20212;-82
2022/10/04 03:11:06;;;;;;;14.70;8.63;;;12.40;99.90;;;;;;5036128;28;20504;-82
2022/10/04 03:13:33;;;;;;;14.87;7.47;;;12.40;99.90;;;;;;5036093;28;20492;-82
2022/10/04 03:16:00;;;;;;;13.53;7.80;;;12.40;99.90;;;;;;5035705;28;20214;-83
2022/10/04 03:18:29;;;;;;;13.00;6.90;;;12.40;99.90;;;;;;5035911;28;20195;-83
2022/10/04 03:20:56;;;;;;;14.40;8.13;;;12.40;99.90;;;;;;5034903;28;20205;-82
2022/10/04 03:23:23;;;;;;;9.07;6.70;;;12.40;99.90;;;;;;5035553;28;20217;-83
2022/10/04 03:25:57;;;;;;;11.43;6.40;;;12.30;99.90;;;;;;5036163;28;20282;-83
2022/10/04 03:28:27;;;;;;;10.93;7.67;;;12.30;99.90;;;;;;5035976;28;20280;-83
2022/10/04 03:30:56;;;;;;;11.20;6.70;;;12.30;99.90;;;;;;5035328;28;20214;-83
2022/10/04 03:33:26;;;;;;;9.67;5.87;;;12.20;99.90;;;;;;5035530;28;20210;-81
2022/10/04 03:35:55;;;;;;;14.17;6.37;;;12.20;99.90;;;;;;5035811;28;20203;-82
2022/10/04 03:38:24;;;;;;;11.17;6.47;;;12.20;99.90;;;;;;5035381;28;20206;-83
2022/10/04 03:40:55;;;;;;;14.83;7.87;;;12.20;99.90;;;;;;5035994;28;20496;-83
2022/10/04 03:43:27;;;;;;;11.53;7.50;;;12.10;99.90;;;;;;5035634;28;20289;-83
2022/10/04 03:45:56;;;;;;;13.63;6.97;;;12.00;99.90;;;;;;5035907;28;20282;-83
2022/10/04 03:48:31;;;;;;;13.43;6.57;;;12.10;99.90;;;;;;5046521;28;20209;-83
2022/10/04 03:51:00;;;;;;;11.13;7.30;;;12.00;99.90;;;;;;5042536;28;20554;-83
2022/10/04 03:53:34;;;;;;;10.73;6.80;;;12.00;99.90;;;;;;5035981;28;20739;-82
2022/10/04 03:56:03;;;;;;;10.77;7.20;;;12.00;99.90;;;;;;5035798;28;20193;-83
2022/10/04 03:58:32;;;;;;;10.63;7.57;;;12.00;99.90;;;;;;5052708;28;20356;-83
2022/10/04 04:01:21;;;;;;;12.37;7.07;;;12.00;99.90;;;;;;5055492;28;20212;-83
2022/10/04 04:03:57;;;;;;;11.87;8.27;;;11.90;99.90;;;;;;5055178;28;20325;-83
2022/10/04 04:06:27;;;;;;;9.80;7.47;;;11.90;99.90;;;;;;5037932;28;20224;-82
2022/10/04 04:08:56;;;;;;;13.47;8.30;;;11.90;99.90;;;;;;5035692;28;20217;-82
2022/10/04 04:11:26;;;;;;;11.40;8.03;;;11.90;99.90;;;;;;5035747;28;20502;-84
2022/10/04 04:14:01;;;;;;;15.27;9.07;;;11.90;99.90;;;;;;5034865;28;20226;-82
2022/10/04 04:16:29;;;;;;;13.53;7.97;;;11.90;99.90;;;;;;5034833;28;20285;-83
2022/10/04 04:19:01;;;;;;;11.87;8.60;;;11.90;99.90;;;;;;5034912;28;20228;-83
2022/10/04 04:21:29;;;;;;;11.93;8.00;;;11.90;99.90;;;;;;5034837;28;20195;-82
2022/10/04 04:23:59;;;;;;;12.47;9.13;;;11.80;99.90;;;;;;5034574;28;20305;-83
2022/10/04 04:26:33;;;;;;;16.30;10.13;;;11.80;99.90;;;;;;5034501;28;20308;-83
2022/10/04 04:29:08;;;;;;;12.63;8.63;;;11.90;99.90;;;;;;5034865;28;20229;-82
2022/10/04 04:31:41;;;;;;;12.90;8.37;;;11.90;99.90;;;;;;5034775;28;20186;-83
2022/10/04 04:34:18;;;;;;;12.30;8.57;;;11.90;99.90;;;;;;5034601;28;20197;-82
2022/10/04 04:36:45;;;;;;;19.17;10.23;;;11.80;99.90;;;;;;5034675;28;20207;-83
2022/10/04 04:39:37;;;;;;;14.63;9.80;;;11.80;99.90;;;;;;5034623;28;20661;-82
2022/10/04 04:42:10;;;;;;;17.27;9.00;;;11.80;99.90;;;;;;5034102;28;20202;-83
2022/10/04 04:44:46;;;;;;;17.73;10.10;;;11.80;99.90;;;;;;5034251;28;20253;-81
2022/10/04 04:47:25;;;;;;;14.67;9.53;;;11.80;99.90;;;;;;5034189;28;20802;-83
2022/10/04 04:49:55;;;;;;;13.67;9.10;;;11.80;99.90;;;;;;5034439;28;20214;-83
2022/10/04 04:52:26;;;;;;;14.90;10.60;;;11.70;99.90;;;;;;5034317;28;20289;-83
2022/10/04 04:54:54;;;;;;;16.60;11.40;;;11.70;99.90;;;;;;5033350;28;20282;-83
2022/10/04 04:57:22;;;;;;;19.80;12.10;;;11.80;99.90;;;;;;5034109;28;20221;-81
2022/10/04 04:59:55;;;;;;;17.77;12.03;;;11.70;99.90;;;;;;5034565;28;20213;-82
2022/10/04 05:02:30;;;;;;;15.47;10.30;;;11.70;99.90;;;;;;5033906;28;20194;-82
2022/10/04 05:05:19;;;;;;;17.53;11.53;;;11.70;99.90;;;;;;5034281;28;20228;-83
2022/10/04 05:07:46;;;;;;;15.50;10.77;;;11.70;99.90;;;;;;5034119;28;20276;-83
2022/10/04 05:10:30;;;;;;;16.60;12.10;;;11.70;99.90;;;;;;5033822;28;20293;-83
2022/10/04 05:12:58;;;;;;;18.87;11.73;;;11.70;99.90;;;;;;5034364;28;20198;-83
2022/10/04 05:15:33;;;;;;;15.57;10.50;;;11.70;99.90;;;;;;5044123;28;20887;-82
2022/10/04 05:18:01;;;;;;;15.57;10.47;;;11.60;99.90;;;;;;5054049;28;20550;-83
2022/10/04 05:20:28;;;;;;;15.90;11.97;;;11.60;99.90;;;;;;5043066;28;20217;-83
2022/10/04 05:22:55;;;;;;;18.37;11.90;;;11.60;99.90;;;;;;5034039;28;20198;-83
2022/10/04 05:25:29;;;;;;;19.73;13.43;;;11.60;99.90;;;;;;5034015;28;20227;-82
2022/10/04 05:27:56;;;;;;;16.23;12.53;;;11.60;99.90;;;;;;5033767;28;20261;-83
2022/10/04 05:30:41;;;;;;;18.70;12.37;;;11.50;99.90;;;;;;5033159;28;20206;-83
2022/10/04 05:33:11;;;;;;;18.60;11.90;;;11.60;99.90;;;;;;5033801;28;20202;-82
2022/10/04 05:35:59;;;;;;;19.80;12.87;;;11.50;99.90;;;;;;5033714;28;20201;-82
2022/10/04 05:38:36;;;;;;;20.97;13.50;;;11.50;99.90;;;;;;5033035;28;20654;-82
2022/10/04 05:41:08;;;;;;;21.87;13.83;;;11.50;99.90;;;;;;5033452;28;20611;-82
2022/10/04 05:43:38;;;;;;;19.10;13.87;;;11.50;99.90;;;;;;5031971;28;20186;-82
2022/10/04 05:46:19;;;;;;;22.10;14.07;;;11.40;99.90;;;;;;5033361;28;20227;-82
2022/10/04 05:48:51;;;;;;;21.93;15.20;;;11.40;99.90;;;;;;5033619;28;20274;-82
2022/10/04 05:51:19;;;;;;;20.37;14.37;;;11.40;99.90;;;;;;5051659;28;20620;-82
2022/10/04 05:53:48;;;;;;;17.93;13.60;;;11.40;99.90;;;;;;5052919;28;20193;-81
2022/10/04 05:56:34;;;;;;;20.80;13.67;;;11.40;99.90;;;;;;5042479;28;20226;-82
2022/10/04 05:59:11;;;;;;;20.07;13.90;;;11.30;99.90;;;;;;5032923;28;20213;-82
2022/10/04 06:01:46;;;;;;;20.27;13.63;;;11.30;99.90;;;;;;5033150;28;20229;-82
2022/10/04 06:04:31;;;;;;;28.37;15.50;;;11.30;99.90;;;;;;5030235;28;20245;-82
2022/10/04 06:07:01;;;;;;;25.33;15.67;;;11.30;99.90;;;;;;5033095;28;20194;-82
2022/10/04 06:09:51;;;;;;;21.60;14.70;;;11.30;99.90;;;;;;5032814;28;20565;-82
2022/10/04 06:12:29;;;;;;;22.93;14.67;;;11.30;99.90;;;;;;5033003;28;20187;-81
2022/10/04 06:15:24;;;;;;;16.63;13.50;;;11.30;99.90;;;;;;5033111;28;20268;-81
2022/10/04 06:18:06;;;;;;;21.57;14.77;;;11.20;99.90;;;;;;5032691;28;20190;-81
2022/10/04 06:21:02;;;;;;;22.03;13.13;;;11.30;99.90;;;;;;5031881;28;20237;-81
2022/10/04 06:23:34;;;;;;;19.93;14.53;;;11.20;99.90;;;;;;5020395;28;20203;-81
2022/10/04 06:26:07;;;;;;;21.90;15.17;;;11.20;99.90;;;;;;5031947;28;20238;-82
2022/10/04 06:28:39;;;;;;;21.33;15.50;;;11.20;99.90;;;;;;5032811;28;20274;-83
2022/10/04 06:31:38;;;;;;;26.20;16.30;;;11.20;99.90;;;;;;5032519;28;20201;-80
2022/10/04 06:34:26;;;;;;;16.47;13.20;;;11.20;99.90;;;;;;4964176;28;20203;-79
2022/10/04 06:37:14;;;;;;;21.40;14.53;;;11.20;99.90;;;;;;5033734;28;20630;-80
2022/10/04 06:40:12;;;;;;;24.77;15.50;;;11.20;99.90;;;;;;5032454;28;20207;-78
2022/10/04 06:42:56;;;;;;;22.20;15.50;;;11.30;99.90;;;;;;5029767;28;20220;-80
2022/10/04 06:45:37;;;;;;;23.50;16.10;;;11.30;99.90;;;;;;5032224;28;20203;-81
2022/10/04 06:48:37;;;;;;;23.17;15.27;;;11.30;99.90;;;;;;5031967;28;20190;-81
2022/10/04 06:51:16;;;;;;;21.50;14.27;;;11.40;99.90;;;;;;5032056;28;20194;-80
2022/10/04 06:53:55;;;;;;;26.40;16.07;;;11.40;99.90;;;;;;5041247;28;20289;-82
2022/10/04 06:56:52;;;;;;;26.83;15.87;;;11.50;99.90;;;;;;5047781;28;20209;-81
2022/10/04 06:59:31;;;;;;;19.10;14.07;;;11.60;99.90;;;;;;5055847;28;20210;-81
2022/10/04 07:02:04;;;;;;;22.77;15.53;;;11.60;99.90;;;;;;5055142;28;20606;-80
2022/10/04 07:04:37;;;;;;;22.40;15.30;;;11.60;99.90;;;;;;5047499;28;20237;-81
2022/10/04 07:07:33;;;;;;;21.20;14.53;;;11.70;99.90;;;;;;5055275;28;20201;-80
2022/10/04 07:10:12;;;;;;;24.70;16.07;;;11.80;99.90;;;;;;5054854;28;20202;-81
2022/10/04 07:12:43;;;;;;;26.83;16.13;;;11.90;99.90;;;;;;5040000;28;20198;-81
2022/10/04 07:15:19;;;;;;;26.93;16.17;;;11.90;99.90;;;;;;5056272;28;20265;-81
2022/10/04 07:17:48;;;;;;;22.97;15.50;;;11.90;99.90;;;;;;5054852;28;20204;-81
2022/10/04 07:20:21;;;;;;;27.73;16.50;;;12.00;99.90;;;;;;5051497;28;20202;-81
2022/10/04 07:22:56;;;;;;;22.20;15.00;;;12.00;99.90;;;;;;5058115;28;20199;-81
2022/10/04 07:25:27;;;;;;;22.30;14.60;;;12.10;99.90;;;;;;5034934;28;20539;-81
2022/10/04 07:30:45;;;;;;;19.93;13.87;;;12.10;99.90;;;;;;5043087;28;20484;-90
2022/10/04 07:33:17;;;;;;;22.73;15.30;;;12.10;99.90;;;;;;5045780;28;20200;-79
2022/10/04 07:35:48;;;;;;;20.87;15.77;;;12.20;99.90;;;;;;5053368;28;20195;-76
2022/10/04 07:38:23;;;;;;;29.87;16.90;;;12.20;99.90;;;;;;5054118;28;20220;-78
2022/10/04 07:41:07;;;;;;;16.60;13.37;;;12.30;99.90;;;;;;5033968;28;20950;-78
2022/10/04 07:43:38;;;;;;;22.97;16.43;;;12.30;99.90;;;;;;5033812;28;20206;-78
2022/10/04 07:46:20;;;;;;;19.40;13.77;;;12.40;99.90;;;;;;5040318;28;20205;-78
2022/10/04 07:48:48;;;;;;;22.47;14.30;;;12.40;99.90;;;;;;5054207;28;20189;-79
2022/10/04 07:51:24;;;;;;;17.43;11.97;;;12.50;99.90;;;;;;5047270;28;20210;-79
2022/10/04 07:53:57;;;;;;;20.03;14.87;;;12.60;99.90;;;;;;5034360;28;20252;-78
2022/10/04 07:56:35;;;;;;;19.27;13.43;;;12.60;99.90;;;;;;5033882;28;20281;-79
2022/10/04 07:59:19;;;;;;;20.10;14.10;;;12.70;99.90;;;;;;5041962;28;20197;-78
2022/10/04 08:01:52;;;;;;;18.87;13.53;;;12.80;99.90;;;;;;5048528;28;20202;-78
2022/10/04 08:04:30;;;;;;;19.47;14.07;;;12.80;99.90;;;;;;5042040;28;20634;-78
2022/10/04 08:07:00;;;;;;;22.47;15.47;;;12.80;99.90;;;;;;5044542;28;20224;-78
2022/10/04 08:09:46;;;;;;;19.33;12.83;;;12.90;99.90;;;;;;5041617;28;20225;-78
2022/10/04 08:12:21;;;;;;;17.53;13.17;;;12.90;99.90;;;;;;5039443;28;20674;-83
2022/10/04 08:14:56;;;;;;;20.87;14.27;;;13.00;99.90;;;;;;5056535;28;20189;-88
2022/10/04 08:17:40;;;;;;;19.63;12.93;;;13.10;99.90;;;;;;5056243;28;20190;-89
2022/10/04 08:20:34;;;;;;;25.63;14.37;;;13.10;99.90;;;;;;5040221;28;20203;-88
2022/10/04 08:23:27;;;;;;;21.60;15.13;;;13.20;99.90;;;;;;5035913;28;20202;-90
2022/10/04 08:26:07;;;;;;;21.40;13.03;;;13.20;99.90;;;;;;5035951;28;20215;-87
2022/10/04 08:31:40;;;;;;;18.87;12.27;;;13.30;99.90;;;;;;5038540;28;20236;-88
2022/10/04 08:34:27;;;;;;;16.70;13.00;;;13.40;99.90;;;;;;5056080;28;20205;-90
2022/10/04 08:37:08;;;;;;;18.30;12.40;;;13.50;99.90;;;;;;5054153;28;20284;-89
2022/10/04 08:39:53;;;;;;;17.57;12.63;;;13.60;99.90;;;;;;5036073;28;20198;-89
2022/10/04 08:42:47;;;;;;;19.23;13.70;;;13.70;99.90;;;;;;5051806;28;20202;-89
2022/10/04 08:46:03;;;;;;;21.37;12.70;;;13.80;99.90;;;;;;5054576;28;20229;-89
2022/10/04 08:49:01;;;;;;;17.60;11.90;;;13.90;99.90;;;;;;4955596;29;20205;-89
2022/10/04 08:52:11;;;;;;;19.30;13.63;;;14.00;99.90;;;;;;4986935;28;20212;-90
2022/10/04 08:55:07;;;;;;;15.87;10.83;;;14.00;99.90;;;;;;5055537;28;20281;-86
2022/10/04 08:58:00;;;;;;;26.60;14.30;;;14.10;99.90;;;;;;5051732;28;20717;-89
2022/10/04 09:00:38;;;;;;;14.73;12.13;;;14.20;99.90;;;;;;5055406;28;20831;-89
2022/10/04 09:03:36;;;;;;;18.47;12.43;;;14.30;99.90;;;;;;5055193;28;20594;-90
2022/10/04 09:06:20;;;;;;;19.53;13.70;;;14.30;99.90;;;;;;5055008;28;20241;-90
2022/10/04 09:09:24;;;;;;;18.50;12.80;;;14.40;99.90;;;;;;5035712;28;20191;-84
2022/10/04 09:12:20;;;;;;;17.93;13.20;;;14.40;99.90;;;;;;5039558;28;20198;-89
2022/10/04 09:15:03;;;;;;;18.80;11.45;;;14.30;99.90;;;;;;5051335;28;20657;-90
2022/10/04 09:17:43;;;;;;;20.35;12.98;;;14.50;99.90;;;;;;5054533;28;20194;-90
2022/10/04 09:20:31;;;;;;;16.58;11.18;;;14.60;99.90;;;;;;5033753;28;20256;-90
2022/10/04 09:23:12;;;;;;;18.25;11.52;;;14.80;99.90;;;;;;5048498;28;20594;-90
2022/10/04 09:26:09;;;;;;;15.05;10.98;;;14.90;99.90;;;;;;5034995;28;20360;-90
2022/10/04 09:29:11;;;;;;;12.57;9.45;;;15.10;99.90;;;;;;5018668;28;20286;-87
2022/10/04 09:32:20;;;;;;;14.15;9.05;;;15.30;99.90;;;;;;5034378;28;20198;-84
2022/10/04 09:35:17;;;;;;;13.45;9.02;;;15.50;99.90;;;;;;5034634;28;20198;-90
2022/10/04 09:38:05;;;;;;;11.10;8.30;;;15.60;99.90;;;;;;5038358;28;20234;-87
2022/10/04 09:41:07;;;;;;;9.30;7.20;;;15.90;99.90;;;;;;5054140;28;20194;-86
2022/10/04 09:44:11;;;;;;;13.85;7.68;;;16.10;99.90;;;;;;5033848;28;20206;-89
2022/10/04 09:46:59;;;;;;;10.80;6.75;;;16.40;99.90;;;;;;5032597;28;20222;-88
2022/10/04 09:49:51;;;;;;;10.48;7.53;;;16.50;99.90;;;;;;5034834;28;20207;-88
2022/10/04 09:52:34;;;;;;;10.50;6.53;;;16.60;99.90;;;;;;5053694;28;20598;-89
2022/10/04 09:55:18;;;;;;;10.82;6.00;;;16.70;99.90;;;;;;5052715;28;20699;-88
2022/10/04 09:58:06;;;;;;;9.35;6.10;;;16.70;99.90;;;;;;5054516;28;20293;-87
2022/10/04 10:00:38;;;;;;;12.20;6.60;;;16.70;99.90;;;;;;5051383;28;20244;-89
2022/10/04 10:03:34;;;;;;;8.85;5.30;;;16.80;99.90;;;;;;5034411;28;20643;-90
2022/10/04 10:06:15;;;;;;;9.27;6.18;;;17.00;99.90;;;;;;5047207;28;20300;-89
2022/10/04 10:08:57;;;;;;;7.65;6.32;;;17.30;99.90;;;;;;5054233;28;20244;-87
2022/10/04 10:14:46;;;;;;;12.85;6.38;;;17.60;99.90;;;;;;5033881;28;20185;-84
2022/10/04 10:17:21;;;;;;;9.20;6.30;;;17.70;99.90;;;;;;5053479;28;20190;-85
2022/10/04 10:20:25;;;;;;;7.90;6.10;;;17.70;99.90;;;;;;5041193;28;20212;-86
2022/10/04 10:23:23;;;;;;;7.50;5.70;;;17.80;99.90;;;;;;5031849;28;20199;-87
2022/10/04 10:26:13;;;;;;;10.18;5.65;;;18.00;99.90;;;;;;5033704;28;20317;-86
2022/10/04 10:28:57;;;;;;;5.70;5.00;;;18.20;99.90;;;;;;5053211;28;20208;-86
2022/10/04 10:31:44;;;;;;;7.97;4.93;;;18.30;99.90;;;;;;5045191;28;20718;-90
2022/10/04 10:34:36;;;;;;;6.60;5.20;;;18.40;99.90;;;;;;5052738;28;20198;-88
2022/10/04 10:37:12;;;;;;;9.10;4.93;;;18.30;99.90;;;;;;5057647;28;20190;-88
2022/10/04 10:40:26;;;;;;;7.00;4.32;;;18.20;99.90;;;;;;5057237;28;20560;-87
2022/10/04 10:43:40;;;;;;;5.95;4.25;;;18.20;99.90;;;;;;5057836;28;20210;-88
2022/10/04 10:46:18;;;;;;;4.95;3.92;;;18.30;99.90;;;;;;4976748;28;20530;-88
2022/10/04 10:49:02;;;;;;;6.38;3.85;;;18.40;99.90;;;;;;5054490;28;20754;-87
2022/10/04 10:51:59;;;;;;;11.55;4.38;;;18.60;99.90;;;;;;5056927;28;20598;-88
2022/10/04 10:54:53;;;;;;;8.80;5.00;;;18.70;99.90;;;;;;5049514;28;20201;-84
2022/10/04 10:57:42;;;;;;;8.40;5.45;;;18.70;99.90;;;;;;5036062;28;20245;-88
2022/10/04 11:00:35;;;;;;;5.72;4.88;;;18.80;99.90;;;;;;5037560;28;20195;-85
2022/10/04 11:03:36;;;;;;;5.63;4.32;;;19.00;99.90;;;;;;5037220;28;20260;-88
2022/10/04 11:06:32;;;;;;;4.90;4.40;;;18.90;99.90;;;;;;5037502;28;20226;-89
2022/10/04 11:09:29;;;;;;;4.78;3.42;;;19.10;99.90;;;;;;5046819;28;20285;-87
2022/10/04 11:12:18;;;;;;;5.88;4.90;;;19.10;99.90;;;;;;5038385;28;20206;-86
2022/10/04 11:15:24;;;;;;;9.00;5.50;;;19.00;99.90;;;;;;5035912;28;20500;-86
2022/10/04 11:18:32;;;;;;;6.97;4.70;;;18.80;99.90;;;;;;5049759;28;20212;-87
2022/10/04 11:21:24;;;;;;;8.82;5.90;;;18.80;99.90;;;;;;5008381;28;20210;-88
2022/10/04 11:24:15;;;;;;;6.05;5.35;;;18.90;99.90;;;;;;5037360;28;20199;-82
2022/10/04 11:27:14;;;;;;;8.05;5.45;;;19.10;99.90;;;;;;5036354;28;20309;-84
2022/10/04 11:29:54;;;;;;;7.78;5.82;;;19.30;99.90;;;;;;5032773;28;20298;-85
2022/10/04 11:32:50;;;;;;;9.10;5.50;;;19.20;99.90;;;;;;5036658;28;20212;-84
2022/10/04 11:35:49;;;;;;;7.57;5.63;;;19.30;99.90;;;;;;5035637;28;20214;-85
2022/10/04 11:38:47;;;;;;;7.22;5.30;;;19.40;99.90;;;;;;5042644;28;20217;-83
2022/10/04 11:41:19;;;;;;;6.45;5.03;;;19.30;99.90;;;;;;5054279;28;20205;-86
2022/10/04 11:44:30;;;;;;;9.65;5.18;;;19.20;99.90;;;;;;5055660;28;20205;-85
2022/10/04 11:47:06;;;;;;;5.47;4.38;;;19.30;99.90;;;;;;5006061;28;20341;-85
2022/10/04 11:49:55;;;;;;;6.10;4.57;;;19.50;99.90;;;;;;5035320;28;20244;-84
2022/10/04 11:53:02;;;;;;;6.53;4.35;;;19.60;99.90;;;;;;5035148;28;20207;-84
2022/10/04 11:56:04;;;;;;;7.70;4.35;;;19.70;99.90;;;;;;5035651;28;20206;-82
2022/10/04 11:58:43;;;;;;;7.70;4.68;;;19.70;99.90;;;;;;5034630;28;20225;-84
2022/10/04 12:01:50;;;;;;;6.40;4.18;;;19.80;99.90;;;;;;5035570;28;20256;-83
2022/10/04 12:04:48;;;;;;;6.72;4.65;;;20.00;99.90;;;;;;5035008;28;20234;-85
2022/10/04 12:07:57;;;;;;;10.32;4.90;;;20.20;99.90;;;;;;5035150;28;20695;-86
2022/10/04 12:10:29;;;;;;;7.70;4.18;;;20.10;99.90;;;;;;5007007;28;20301;-83
2022/10/04 12:13:26;;;;;;;7.97;4.25;;;20.10;99.90;;;;;;5034388;28;20231;-83
2022/10/04 12:16:32;;;;;;;6.72;3.85;;;20.20;99.90;;;;;;5034466;28;20225;-83
2022/10/04 12:19:30;;;;;;;6.53;4.13;;;20.10;99.90;;;;;;5033943;28;20191;-82
2022/10/04 12:22:34;;;;;;;5.47;3.55;;;20.10;99.90;;;;;;5034529;28;20197;-84
2022/10/04 12:25:43;;;;;;;5.03;3.95;;;20.20;99.90;;;;;;5023881;28;20238;-84
2022/10/04 12:29:04;;;;;;;5.50;3.67;;;20.10;99.90;;;;;;5034127;28;20229;-85
2022/10/04 12:31:34;;;;;;;6.45;3.70;;;20.10;99.90;;;;;;4998323;28;20213;-81
2022/10/04 12:34:13;;;;;;;5.45;3.55;;;20.00;99.90;;;;;;5033568;28;20214;-82
2022/10/04 12:37:05;;;;;;;6.38;3.75;;;19.90;99.90;;;;;;5034096;28;20187;-84
2022/10/04 12:39:57;;;;;;;6.28;4.30;;;19.80;99.90;;;;;;5033272;28;20198;-84
2022/10/04 12:42:34;;;;;;;4.43;3.50;;;19.90;99.90;;;;;;5034011;28;20270;-81
2022/10/04 12:45:40;;;;;;;6.53;3.55;;;20.00;99.90;;;;;;5034055;28;20260;-84
2022/10/04 12:48:18;;;;;;;6.00;3.80;;;19.90;99.90;;;;;;4984390;28;20236;-83
2022/10/04 12:50:58;;;;;;;6.32;3.30;;;20.00;99.90;;;;;;5033850;28;20285;-84
2022/10/04 12:53:35;;;;;;;6.68;3.47;;;20.10;99.90;;;;;;5031578;28;20277;-82
2022/10/04 12:56:12;;;;;;;5.90;3.60;;;20.10;99.90;;;;;;5033600;28;20193;-83
2022/10/04 12:59:14;;;;;;;5.30;3.10;;;20.00;99.90;;;;;;5032929;28;20253;-84
2022/10/04 13:01:52;;;;;;;6.43;3.33;;;20.00;99.90;;;;;;5033124;28;20202;-83
2022/10/04 13:04:29;;;;;;;4.05;2.40;;;20.10;99.90;;;;;;5033025;28;20246;-84
2022/10/04 13:07:25;;;;;;;7.40;3.00;;;20.20;99.90;;;;;;5032799;28;20256;-84
2022/10/04 13:10:04;;;;;;;3.67;2.60;;;20.30;99.90;;;;;;5032871;28;20264;-83
2022/10/04 13:12:41;;;;;;;3.45;2.60;;;20.30;99.90;;;;;;5033359;28;20198;-83
2022/10/04 13:15:24;;;;;;;4.70;3.53;;;20.30;99.90;;;;;;5041147;28;20212;-84
2022/10/04 13:18:00;;;;;;;5.72;3.40;;;20.20;99.90;;;;;;5053025;28;20279;-83
2022/10/04 13:20:40;;;;;;;8.05;3.90;;;20.10;99.90;;;;;;5048141;28;20277;-83
2022/10/04 13:23:16;;;;;;;4.93;3.25;;;19.90;99.90;;;;;;5053522;28;20190;-82
2022/10/04 13:26:03;;;;;;;4.15;3.30;;;19.90;99.90;;;;;;5044696;28;20206;-84
2022/10/04 13:28:36;;;;;;;7.10;3.67;;;19.80;99.90;;;;;;5015626;28;20210;-80
2022/10/04 13:31:10;;;;;;;6.88;3.60;;;19.80;99.90;;;;;;5033471;28;20275;-83
2022/10/04 13:33:46;;;;;;;5.72;3.40;;;19.90;99.90;;;;;;5032928;28;20281;-83
2022/10/04 13:36:20;;;;;;;4.32;3.60;;;19.90;99.90;;;;;;5050582;28;20193;-82
2022/10/04 13:39:15;;;;;;;8.25;3.97;;;19.90;99.90;;;;;;5053010;28;20594;-82
2022/10/04 13:42:10;;;;;;;8.10;4.28;;;19.80;99.90;;;;;;5027661;28;20230;-83
2022/10/04 13:44:58;;;;;;;7.78;4.55;;;19.70;99.90;;;;;;5041877;28;20212;-82
2022/10/04 13:47:47;;;;;;;6.55;4.03;;;19.60;99.90;;;;;;5052635;28;20242;-83
2022/10/04 13:50:45;;;;;;;7.32;5.20;;;19.50;99.90;;;;;;5043628;28;20205;-82
2022/10/04 13:56:36;;;;;;;4.70;4.05;;;19.40;99.90;;;;;;5046817;28;20283;-82